Latest Weather Observations for Cobar

IDN60801

Issued at 11:04 am EDT Friday 30 January 2015 (issued every 30 minutes, with the page automatically refreshed every 10 minutes)

About weather observations | Map of weather stations | Latest weather observations for NSW | Other Formats
Station Details ID: 048027 Name: COBAR MO Lat: -31.48 Lon: 145.83 Height: 260.0 m
Data from the previous 72 hours. | See also: Recent months at Cobar
Date/Time
EDT
Temp
°C
App
Temp
°C
Dew
Point
Rel
Hum
%
Delta-T
°C
Wind Press
QNH
hPa
Press
MSL
hPa
Rain
since 9 am
mm
Dir
 
Spd
km/h
Gust
km/h
Spd
kts
Gust
kts
30/11:00am 25.7 21.1 1.4 20 11.7 SSW 15 24 8 13 1011.0 - 0.0
30/10:30am 25.4 21.1 1.1 20 11.6 SSW 13 20 7 11 1011.1 - 0.0
30/10:00am 24.7 20.7 0.8 21 11.3 SSW 11 17 6 9 1011.1 - 0.0
30/09:30am 23.8 20.8 2.2 24 10.4 S 7 13 4 7 1011.1 - 0.0
30/09:00am 22.7 20.2 4.8 31 9.0 SSE 7 11 4 6 1011.3 1009.7 0.2
30/08:30am 20.9 18.0 4.5 34 8.1 S 9 13 5 7 1011.3 - 0.2
30/08:00am 19.3 16.6 5.7 41 6.8 S 9 13 5 7 1011.3 - 0.2
30/07:30am 18.3 16.2 6.6 46 5.9 S 7 11 4 6 1010.9 - 0.2
30/07:00am 17.4 15.3 6.7 49 5.4 S 7 11 4 6 1010.4 - 0.2
30/06:30am 17.0 14.7 7.4 53 4.9 S 9 11 5 6 1010.1 - 0.2
30/06:00am 17.5 15.7 7.8 53 5.0 S 7 9 4 5 1009.7 1008.1 0.2
30/05:30am 17.9 15.9 7.1 49 5.5 S 7 9 4 5 1009.5 - 0.2
30/05:00am 18.0 15.7 7.5 50 5.4 S 9 11 5 6 1009.5 - 0.2
30/04:30am 18.1 16.3 7.8 51 5.3 S 7 9 4 5 1009.5 - 0.2
30/04:00am 18.1 16.5 8.1 52 5.2 SSE 6 7 3 4 1009.7 - 0.2
30/03:30am 18.8 17.0 8.1 49 5.6 S 7 9 4 5 1009.8 - 0.2
30/03:00am 19.5 17.9 7.8 46 6.1 SSE 6 7 3 4 1010.1 1008.5 0.2
30/02:30am 19.7 17.9 7.8 46 6.2 S 7 9 4 5 1010.3 - 0.2
30/02:00am 20.1 18.3 8.1 46 6.3 S 7 11 4 6 1010.4 - 0.2
30/01:30am 21.0 19.2 8.1 43 6.8 SE 7 9 4 5 1010.5 - 0.2
30/01:00am 21.6 19.8 8.0 41 7.2 SE 7 9 4 5 1010.5 - 0.2
30/12:30am 22.2 20.1 8.1 40 7.5 SE 9 11 5 6 1010.6 - 0.2
30/12:00am 22.6 20.5 8.4 40 7.6 ESE 9 11 5 6 1010.8 1009.1 0.2
 
Date/Time
EDT
Temp
°C
App
Temp
°C
Dew
Point
Rel
Hum
%
Delta-T
°C
Wind Press
QNH
hPa
Press
MSL
hPa
Rain
since 9 am
mm
Dir
 
Spd
km/h
Gust
km/h
Spd
kts
Gust
kts
29/11:30pm 23.9 21.2 7.5 35 8.7 ESE 11 15 6 8 1010.8 - 0.2
29/11:00pm 24.6 21.6 7.6 33 9.1 ESE 13 19 7 10 1010.7 - 0.2
29/10:30pm 25.5 22.3 6.8 30 9.9 SE 13 20 7 11 1010.6 - 0.2
29/10:00pm 26.4 22.5 7.2 29 10.3 SE 17 26 9 14 1010.3 - 0.2
29/09:30pm 26.8 24.0 7.0 28 10.6 SSE 11 19 6 10 1010.0 - 0.2
29/09:00pm 26.9 24.7 7.8 29 10.4 S 9 15 5 8 1009.8 1008.2 0.2
29/08:30pm 27.4 25.1 7.5 28 10.8 S 9 13 5 7 1009.6 - 0.2
29/08:00pm 28.1 25.2 6.4 25 11.6 S 11 19 6 10 1009.3 - 0.2
29/07:30pm 28.7 25.4 6.6 24 11.9 S 13 17 7 9 1009.1 - 0.2
29/07:00pm 28.8 25.5 6.2 24 12.1 SSW 13 20 7 11 1008.9 - 0.2
29/06:30pm 28.7 25.3 6.0 23 12.1 SW 13 19 7 10 1008.8 - 0.2
29/06:00pm 28.8 24.6 5.8 23 12.2 SW 17 26 9 14 1008.8 1007.1 0.2
29/05:30pm 29.0 24.5 5.9 23 12.3 SW 19 22 10 12 1009.1 - 0.2
29/05:00pm 28.4 25.2 6.9 25 11.6 S 13 19 7 10 1009.4 - 0.2
29/04:30pm 30.1 26.1 6.7 23 12.7 SW 17 28 9 15 1009.7 - 0.2
29/04:00pm 28.9 24.2 6.0 23 12.2 SSW 20 32 11 17 1010.1 - 0.2
29/03:30pm 28.2 24.6 6.8 25 11.5 SSW 15 20 8 11 1010.5 - 0.2
29/03:00pm 28.5 23.8 6.2 24 11.9 SSW 20 28 11 15 1010.8 1009.2 0.2
29/02:30pm 28.1 24.9 6.7 25 11.5 SW 13 20 7 11 1011.1 - 0.2
29/02:00pm 28.5 25.9 7.9 27 11.3 SSW 11 20 6 11 1011.4 - 0.2
29/01:30pm 28.2 24.4 7.7 27 11.2 WSW 17 24 9 13 1011.9 - 0.2
29/01:00pm 27.3 24.8 8.4 30 10.4 SSE 11 19 6 10 1012.2 - 0.2
29/12:30pm 26.8 25.2 8.6 31 10.0 W 7 13 4 7 1012.6 - 0.2
29/12:00pm 25.9 24.5 9.0 34 9.3 W 6 15 3 8 1013.1 1011.5 0.2
29/11:30am 25.6 23.6 8.6 34 9.3 SSE 9 17 5 9 1013.3 - 0.2
29/11:00am 24.3 22.6 9.9 40 8.0 E 9 13 5 7 1013.6 - 0.0
29/10:30am 23.3 21.7 10.1 43 7.3 E 9 13 5 7 1013.5 - 0.0
29/10:00am 22.9 21.0 10.5 45 6.9 E 11 15 6 8 1013.6 - 0.0
29/09:30am 21.5 19.3 10.7 50 6.0 E 13 19 7 10 1013.6 - 0.0
29/09:00am 20.5 17.5 10.5 52 5.5 E 17 20 9 11 1013.6 1012.0 0.4
29/08:30am 19.3 16.3 10.5 56 4.8 E 17 24 9 13 1013.4 - 0.4
29/08:00am 18.6 15.5 10.3 58 4.5 E 17 24 9 13 1013.1 - 0.4
29/07:30am 17.5 14.8 10.5 63 3.8 E 15 20 8 11 1012.8 - 0.4
29/07:00am 16.8 14.5 10.5 66 3.4 E 13 20 7 11 1012.4 - 0.4
29/06:30am 16.6 14.4 10.7 68 3.2 E 13 19 7 10 1012.0 - 0.4
29/06:00am 16.9 13.9 10.8 67 3.3 E 17 22 9 12 1011.6 1010.0 0.4
29/05:30am 17.1 14.5 10.8 66 3.4 E 15 22 8 12 1011.6 - 0.4
29/05:00am 17.4 14.5 11.0 66 3.5 E 17 26 9 14 1011.3 - 0.4
29/04:30am 17.6 15.1 11.0 65 3.6 E 15 22 8 12 1011.3 - 0.4
29/04:00am 17.9 15.1 11.2 65 3.7 E 17 22 9 12 1011.3 - 0.4
29/03:30am 18.3 15.1 11.2 63 3.9 E 19 28 10 15 1011.5 - 0.4
29/03:00am 18.5 15.2 11.5 63 3.9 E 20 26 11 14 1011.5 1009.9 0.4
29/02:30am 18.8 16.8 11.6 63 4.0 E 13 20 7 11 1011.7 - 0.4
29/02:00am 19.3 16.1 11.4 60 4.4 E 19 28 10 15 1011.7 - 0.4
29/01:30am 19.6 17.2 11.5 59 4.5 E 15 22 8 12 1011.8 - 0.4
29/01:00am 20.2 17.4 11.2 56 5.0 E 17 26 9 14 1011.8 - 0.4
29/12:30am 20.6 17.8 11.5 56 5.1 E 17 26 9 14 1012.0 - 0.4
29/12:00am 20.9 19.0 11.7 55 5.2 E 13 17 7 9 1011.7 1010.2 0.4
 
Date/Time
EDT
Temp
°C
App
Temp
°C
Dew
Point
Rel
Hum
%
Delta-T
°C
Wind Press
QNH
hPa
Press
MSL
hPa
Rain
since 9 am
mm
Dir
 
Spd
km/h
Gust
km/h
Spd
kts
Gust
kts
28/11:30pm 21.5 19.2 11.6 53 5.6 E 15 28 8 15 1011.7 - 0.4
28/11:00pm 22.2 19.0 11.4 50 6.1 E 19 28 10 15 1011.7 - 0.4
28/10:30pm 22.6 19.5 12.1 51 6.0 E 20 30 11 16 1011.5 - 0.4
28/10:00pm 23.2 18.6 12.3 50 6.3 E 28 43 15 23 1011.2 - 0.4
28/09:30pm 24.0 19.6 12.9 50 6.5 E 28 39 15 21 1010.7 - 0.4
28/09:00pm 24.4 21.0 12.5 47 6.9 E 22 33 12 18 1010.1 1008.5 0.4
28/08:30pm 24.5 22.0 13.5 50 6.5 ESE 19 32 10 17 1009.8 - 0.4
28/08:00pm 25.0 22.3 13.5 48 6.8 E 20 30 11 16 1009.5 - 0.4
28/07:30pm 24.2 22.0 15.9 59 5.1 E 22 37 12 20 1009.1 - 0.4
28/07:19pm 22.9 20.7 16.8 68 3.8 E 24 30 13 16 1009.0 - 0.4
28/07:08pm 25.5 18.8 13.4 47 7.2 ESE 41 59 22 32 1008.6 - 0.0
28/07:00pm 27.8 20.6 10.7 34 9.8 ESE 39 52 21 28 1008.2 - 0.0
28/06:30pm 29.9 25.4 8.7 26 11.9 SE 22 33 12 18 1007.5 - 0.0
28/06:00pm 29.9 25.9 8.4 26 12.0 ESE 19 28 10 15 1007.5 1005.9 0.0
28/05:30pm 29.3 23.7 8.8 27 11.5 ESE 28 39 15 21 1007.6 - 0.0
28/05:00pm 30.6 26.6 9.0 26 12.2 ESE 20 35 11 19 1007.7 - 0.0
28/04:30pm 30.5 25.4 9.1 26 12.1 SE 26 37 14 20 1007.8 - 0.0
28/04:00pm 29.7 25.7 10.4 30 11.1 ESE 22 37 12 20 1008.1 - 0.0
28/03:30pm 28.8 24.2 9.8 30 10.8 SE 24 35 13 19 1008.3 - 0.0
28/03:00pm 29.4 25.9 11.0 32 10.7 SE 20 33 11 18 1008.4 1006.8 0.0
28/02:30pm 29.2 25.8 11.4 33 10.4 ESE 20 30 11 16 1008.6 - 0.0
28/02:00pm 28.4 25.0 11.4 34 9.9 ESE 20 32 11 17 1008.9 - 0.0
28/01:30pm 27.9 25.1 11.3 35 9.6 SSE 17 26 9 14 1009.2 - 0.0
28/01:00pm 27.5 24.5 12.1 38 9.0 ESE 19 28 10 15 1009.5 - 0.0
28/12:30pm 26.1 22.8 11.5 40 8.4 SE 20 30 11 16 1009.7 - 0.0
28/12:00pm 26.5 24.0 12.3 41 8.3 SE 17 28 9 15 1009.9 1008.3 0.0
28/11:30am 25.9 24.4 13.2 45 7.5 SE 13 20 7 11 1010.1 - 0.0
28/11:00am 25.0 22.9 13.5 48 6.8 ESE 17 22 9 12 1010.2 - 0.0
28/10:30am 23.9 22.1 13.4 51 6.2 E 15 20 8 11 1010.3 - 0.0
28/10:00am 23.3 21.3 13.8 55 5.6 ESE 17 24 9 13 1010.4 - 0.0
28/09:30am 22.1 20.1 14.0 60 4.8 ESE 17 24 9 13 1010.3 - 0.0
28/09:00am 21.0 19.0 13.8 63 4.2 ESE 17 24 9 13 1010.2 1008.6 0.0
28/08:30am 20.2 17.6 13.9 67 3.7 ESE 20 32 11 17 1009.8 - 0.0
28/08:00am 19.6 17.0 13.9 69 3.3 E 20 32 11 17 1009.6 - 0.0
28/07:30am 18.7 16.2 14.1 74 2.7 E 20 28 11 15 1009.4 - 0.0
28/07:00am 18.3 16.0 14.2 77 2.4 ESE 19 30 10 16 1008.9 - 0.0
28/06:30am 18.0 16.1 14.2 78 2.2 ESE 17 26 9 14 1008.4 - 0.0
28/06:00am 18.2 16.7 14.3 78 2.3 ESE 15 20 8 11 1008.1 1006.5 0.0
28/05:30am 18.4 16.5 14.1 76 2.5 ESE 17 26 9 14 1007.7 - 0.0
28/05:00am 18.6 17.1 14.1 75 2.6 E 15 20 8 11 1007.5 - 0.0
28/04:30am 19.0 16.5 14.2 73 2.8 E 20 30 11 16 1007.4 - 0.0
28/04:00am 19.4 17.6 14.5 73 2.9 ESE 17 24 9 13 1007.6 - 0.0
28/03:30am 19.8 19.1 14.4 71 3.2 E 11 17 6 9 1007.5 - 0.0
28/03:00am 20.3 19.2 14.4 69 3.5 E 13 20 7 11 1007.8 1006.2 0.0
28/02:30am 20.8 19.4 14.4 67 3.8 E 15 22 8 12 1008.0 - 0.0
28/02:00am 21.3 19.6 14.6 65 4.0 ESE 17 22 9 12 1008.1 - 0.0
28/01:30am 22.1 20.8 14.9 63 4.3 ESE 15 20 8 11 1008.1 - 0.0
28/01:00am 22.4 22.0 15.1 63 4.4 E 11 15 6 8 1008.2 - 0.0
28/12:30am 23.0 22.5 14.9 60 4.9 E 11 17 6 9 1008.4 - 0.0
28/12:00am 23.5 22.2 14.7 57 5.3 E 15 24 8 13 1008.4 1006.8 0.0
 
Date/Time
EDT
Temp
°C
App
Temp
°C
Dew
Point
Rel
Hum
%
Delta-T
°C
Wind Press
QNH
hPa
Press
MSL
hPa
Rain
since 9 am
mm
Dir
 
Spd
km/h
Gust
km/h
Spd
kts
Gust
kts
27/11:30pm 24.2 21.9 14.2 53 6.0 E 19 24 10 13 1008.6 - 0.0
27/11:00pm 23.9 21.3 4.4 28 9.8 S 7 9 4 5 1008.6 - 0.0
27/10:30pm 24.5 21.0 1.2 21 11.1 S 9 13 5 7 1008.3 - 0.0
27/10:00pm 25.2 21.1 -0.4 18 11.9 SSE 11 17 6 9 1008.2 - 0.0
27/09:30pm 25.9 20.5 -1.3 16 12.5 SSW 17 26 9 14 1007.2 - 0.0
27/09:00pm 26.7 21.2 -2.4 14 13.2 SSW 17 22 9 12 1006.8 1005.2 0.0
27/08:30pm 27.4 22.4 -1.5 15 13.4 S 15 24 8 13 1006.4 - 0.0
27/08:00pm 28.5 23.0 -1.8 14 14.0 S 17 24 9 13 1006.0 - 0.0
27/07:30pm 29.2 23.3 -2.3 13 14.5 S 19 28 10 15 1005.8 - 0.0
27/07:00pm 30.1 24.7 -1.7 12 14.9 S 17 30 9 16 1005.5 - 0.0
27/06:30pm 29.9 23.7 -2.8 12 15.0 S 20 28 11 15 1005.2 - 0.0
27/06:00pm 30.2 23.5 -1.4 13 15.0 SSW 24 37 13 20 1005.1 1003.4 0.0
27/05:30pm 30.6 24.4 -0.4 13 14.9 SSW 22 32 12 17 1005.3 - 0.0
27/05:00pm 30.7 25.2 0.3 14 14.8 S 19 28 10 15 1005.5 - 0.0
27/04:30pm 30.8 23.8 -0.3 13 15.0 SW 26 35 14 19 1005.5 - 0.0
27/04:00pm 30.6 24.3 -0.9 13 15.1 SSW 22 32 12 17 1005.8 - 0.0
27/03:30pm 30.6 24.4 0.0 14 14.9 SW 22 35 12 19 1006.2 - 0.0
27/03:00pm 30.5 24.2 -0.7 13 15.0 SW 22 32 12 17 1006.6 1005.0 0.0
27/02:30pm 30.1 24.5 0.9 15 14.3 SW 20 28 11 15 1006.9 - 0.0
27/02:00pm 29.2 24.5 3.0 18 13.3 S 17 24 9 13 1007.4 - 0.0
27/01:30pm 29.0 24.4 3.6 19 13.0 S 17 28 9 15 1007.8 - 0.0
27/01:00pm 28.5 24.3 5.6 23 12.1 S 17 28 9 15 1008.3 - 0.0
27/12:30pm 27.7 23.4 7.2 27 11.1 SSW 19 33 10 18 1008.8 - 0.0
27/12:00pm 26.8 22.6 8.4 31 10.1 SSW 20 28 11 15 1009.1 1007.4 0.0
27/11:30am 26.9 23.4 8.8 32 10.0 SSE 17 26 9 14 1009.5 - 0.0

Other Formats:

Comma delimited format used in spreadsheet applications
http://www.bom.gov.au/fwo/IDN60801/IDN60801.94711.axf

JavaScript Object Notation format (JSON) in row-major order
http://www.bom.gov.au/fwo/IDN60801/IDN60801.94711.json